Aérodrome :
LOGIN :

S'inscrire | Disclaimer

   EN    FR    IT 

 










Légende :    VFR   VFR Marginal   IFR   IFR Intensif   IFR Très Intensif
Visi : 
Plafond : 
>= 8 km
>= 3000ft
5 à 8 km
1000 à 3000 ft
1500m à 5 km
500 à 1000 ft
800 à 1500m
200 à 500 ft
< 800m
< 200 ft
Symboles :   Orages  Brouillard  Fortes neiges  Fortes précipitations  Vent > 20 kt
SIGMETs :   Divers  Orages  Givrage  Turbulence  Onde Orograph.  Cendres Volcan.







- Altitude de l'aérodrome : 183 ft
- Code IATA : HAJ


EDDV - Hanover/Langenhagen Int.

DERNIER METAR :
  • 221750Z 30006KT 2300 -DZ BR OVC004 04/04 Q1009 TEMPO 3500

METARs EXPIRÉS :
  • 221720Z 30008KT 3800 -DZ OVC004 04/04 Q1009 TEMPO 5000
  • 221650Z 29008KT 9000 OVC005 04/03 Q1008 TEMPO 4500 BKN004
  • 221620Z 29006KT 7000 -DZ BKN004 04/03 Q1007 TEMPO 4500
  • 221550Z 28006KT 4000 -DZ BKN004 04/03 Q1007 TEMPO 6000
  • 221520Z 27004KT 230V290 4500 -DZ BKN004 04/03 Q1006 TEMPO 6000

TAF TAF EDDV
Valide du 22 à 18h jusqu'au 23 à 18h UTC


221700Z 2218/2318 26007KT 6000 OVC006
TEMPO 2218/2306 2500 -DZ OVC004
TEMPO 2306/2310 BKN012
BECMG 2309/2311 20013KT BKN020
TEMPO 2314/2318 4500 -RA BKN009
Pas de NOTAMs connus pour ce terrain.



MET'MAP, la Météo Aéronautique d'un coup d'oeil ! - Copyright ORBIFLY Décembre 2007 - Disclaimer

ORBIFLY MET'MAP TEAM :

Programmation & Développement : Alexandra Zaïnal
Conception & Développement : Baudouin d'Aumeries
Co-Programmation & Développement : Marc-Olivier Méhu
Soutien technique & logistique : Manuel Goepfert

Contact : metmap@orbifly.com




SOURCES & CREDITS :

   NOAA